Time;durP1;ratioP1;P1;durP2;ratioP2;P2;SDS_P1;SDS_P2;PMS_P1;PMS_P2;Temp;Humidity;BMP_temperature;BMP_pressure;BME280_temperature;BME280_humidity;BME280_pressure;Samples;Min_cycle;Max_cycle;Signal;HPM_P1;HPM_P2
2022/01/01 00:00:13;;;;;;;7.57;4.93;;;21.60;70.10;;;;;;4989219;28;87221;-83
2022/01/01 00:02:43;;;;;;;7.13;4.30;;;21.50;69.90;;;;;;4973714;28;87168;-84
2022/01/01 00:05:49;;;;;;;7.75;4.82;;;21.50;70.00;;;;;;4991753;28;87178;-82
2022/01/01 00:08:30;;;;;;;8.55;5.18;;;21.60;70.10;;;;;;4989031;28;87962;-82
2022/01/01 00:10:55;;;;;;;6.10;4.45;;;21.50;69.90;;;;;;4990447;28;88376;-84
2022/01/01 00:13:22;;;;;;;7.32;4.38;;;21.50;69.90;;;;;;4988996;28;88204;-81
2022/01/01 00:15:48;;;;;;;8.18;4.47;;;21.50;69.90;;;;;;4987492;28;87250;-85
2022/01/01 00:18:13;;;;;;;7.03;5.00;;;21.50;69.70;;;;;;4987990;28;87265;-82
2022/01/01 00:20:39;;;;;;;6.50;4.50;;;21.50;69.60;;;;;;4986160;28;90346;-83
2022/01/01 00:23:09;;;;;;;6.50;4.30;;;21.50;69.50;;;;;;4987435;28;86924;-83
2022/01/01 00:25:36;;;;;;;9.02;4.25;;;21.50;69.50;;;;;;4986120;28;87308;-82
2022/01/01 00:28:47;;;;;;;7.28;5.13;;;21.50;69.40;;;;;;4988556;28;87658;-82
2022/01/01 00:31:39;;;;;;;5.32;4.22;;;21.40;69.40;;;;;;4990908;28;87864;-82
2022/01/01 00:34:08;;;;;;;8.25;4.05;;;21.40;69.40;;;;;;4991343;28;87094;-83
2022/01/01 00:36:44;;;;;;;6.93;4.18;;;21.40;69.50;;;;;;4990319;28;88037;-82
2022/01/01 00:39:13;;;;;;;6.65;4.50;;;21.40;69.20;;;;;;4988978;28;90486;-83
2022/01/01 00:41:38;;;;;;;7.40;4.45;;;21.40;69.20;;;;;;4988744;28;90548;-83
2022/01/01 00:44:07;;;;;;;6.68;4.47;;;21.50;69.30;;;;;;4988134;28;87673;-83
2022/01/01 00:46:34;;;;;;;5.57;4.33;;;21.40;69.30;;;;;;4989237;28;86894;-88
2022/01/01 00:48:59;;;;;;;6.68;3.72;;;21.40;69.20;;;;;;4989919;28;88202;-83
2022/01/01 00:51:26;;;;;;;12.20;4.25;;;21.40;69.10;;;;;;4987866;28;87848;-82
2022/01/01 00:53:52;;;;;;;5.65;4.05;;;21.40;69.00;;;;;;4989007;28;87093;-83
2022/01/01 00:56:18;;;;;;;6.43;4.65;;;21.40;69.00;;;;;;4991273;28;87210;-86
2022/01/01 00:58:43;;;;;;;6.10;4.55;;;21.40;68.90;;;;;;4990346;28;86968;-86
2022/01/01 01:01:11;;;;;;;7.68;4.70;;;21.40;68.80;;;;;;4988836;28;87559;-83
2022/01/01 01:03:39;;;;;;;6.95;4.45;;;21.40;68.80;;;;;;4986733;28;88601;-82
2022/01/01 01:06:10;;;;;;;6.40;4.30;;;21.40;68.80;;;;;;4991896;28;86836;-86
2022/01/01 01:08:36;;;;;;;5.85;4.45;;;21.40;68.90;;;;;;4993064;28;88420;-84
2022/01/01 01:11:09;;;;;;;6.68;4.82;;;21.40;68.90;;;;;;4992239;28;90592;-81
2022/01/01 01:13:40;;;;;;;6.20;4.10;;;21.40;68.80;;;;;;4975346;28;88392;-82
2022/01/01 01:16:07;;;;;;;6.45;3.85;;;21.30;68.70;;;;;;4991996;28;87742;-83
2022/01/01 01:18:36;;;;;;;6.32;4.28;;;21.30;68.70;;;;;;4992440;28;87711;-85
2022/01/01 01:21:06;;;;;;;7.85;4.60;;;21.30;68.70;;;;;;4995319;28;86752;-82
2022/01/01 01:23:36;;;;;;;5.60;4.10;;;21.30;68.50;;;;;;4996022;28;87746;-83
2022/01/01 01:26:08;;;;;;;5.97;4.57;;;21.30;68.70;;;;;;4995451;28;86540;-82
2022/01/01 01:28:45;;;;;;;5.78;4.32;;;21.30;68.50;;;;;;4995449;28;89134;-82
2022/01/01 01:31:19;;;;;;;5.35;4.50;;;21.30;68.50;;;;;;4995625;28;88270;-83
2022/01/01 01:33:46;;;;;;;6.60;4.68;;;21.30;68.50;;;;;;4995542;28;86970;-84
2022/01/01 01:36:16;;;;;;;5.20;4.13;;;21.30;68.60;;;;;;4995798;28;86873;-83
2022/01/01 01:38:41;;;;;;;5.82;4.05;;;21.30;68.40;;;;;;4994685;28;87706;-85
2022/01/01 01:41:09;;;;;;;6.68;4.05;;;21.30;68.60;;;;;;4995098;28;87874;-82
2022/01/01 01:43:35;;;;;;;5.47;4.10;;;21.30;68.50;;;;;;4993859;28;87154;-83
2022/01/01 01:46:04;;;;;;;5.45;4.07;;;21.30;68.70;;;;;;4995005;28;88529;-84
2022/01/01 01:48:41;;;;;;;6.55;4.35;;;21.20;68.50;;;;;;4992040;28;88112;-83
2022/01/01 01:51:12;;;;;;;5.25;3.90;;;21.30;68.50;;;;;;4991865;28;89189;-83
2022/01/01 01:53:38;;;;;;;6.97;4.43;;;21.20;68.50;;;;;;4990913;28;88448;-81
2022/01/01 01:56:27;;;;;;;6.40;4.05;;;21.20;68.50;;;;;;4991745;28;87197;-82
2022/01/01 01:58:53;;;;;;;5.30;4.00;;;21.20;68.40;;;;;;4992012;28;91210;-89
2022/01/01 02:01:27;;;;;;;5.97;3.95;;;21.20;68.30;;;;;;4993141;28;87413;-84
2022/01/01 02:03:59;;;;;;;5.68;3.90;;;21.30;68.40;;;;;;4994040;28;87893;-83
2022/01/01 02:06:25;;;;;;;5.60;3.88;;;21.20;68.30;;;;;;4991831;28;88297;-83
2022/01/01 02:08:52;;;;;;;5.50;4.00;;;21.20;68.40;;;;;;4991831;28;86890;-82
2022/01/01 02:11:23;;;;;;;5.60;4.22;;;21.20;68.50;;;;;;4975601;28;87995;-85
2022/01/01 02:18:50;;;;;;;5.83;3.87;;;21.20;68.40;;;;;;4992299;28;87824;-83
2022/01/01 02:21:20;;;;;;;4.88;3.70;;;21.20;68.30;;;;;;4991476;28;87739;-85
2022/01/01 02:23:47;;;;;;;5.90;4.28;;;21.20;69.00;;;;;;4991623;28;87736;-83
2022/01/01 02:26:16;;;;;;;5.30;3.90;;;21.20;68.40;;;;;;4990647;28;88561;-82
2022/01/01 02:28:47;;;;;;;5.22;4.28;;;21.20;69.20;;;;;;4990972;28;87790;-84
2022/01/01 02:31:14;;;;;;;5.60;4.38;;;21.20;68.20;;;;;;4990672;28;87030;-87
2022/01/01 02:33:42;;;;;;;5.55;3.90;;;21.10;68.10;;;;;;4992061;28;86959;-82
2022/01/01 02:36:11;;;;;;;5.72;4.38;;;21.20;68.20;;;;;;4990007;28;89107;-88
2022/01/01 02:38:39;;;;;;;5.88;3.83;;;21.20;68.20;;;;;;4990200;28;87349;-82
2022/01/01 02:41:05;;;;;;;4.97;4.23;;;21.10;68.20;;;;;;4973106;28;90107;-83
2022/01/01 02:43:33;;;;;;;5.35;4.07;;;21.10;68.30;;;;;;4972065;28;89062;-84
2022/01/01 02:46:36;;;;;;;5.18;3.60;;;21.10;68.20;;;;;;4989374;28;87486;-86
2022/01/01 02:49:04;;;;;;;4.57;3.72;;;21.10;68.00;;;;;;4987976;28;88511;-82
2022/01/01 02:51:37;;;;;;;4.55;3.70;;;21.10;68.10;;;;;;4988611;28;86886;-82
2022/01/01 02:54:33;;;;;;;5.57;4.35;;;21.10;68.00;;;;;;4985594;28;88009;-84
2022/01/01 02:56:59;;;;;;;6.47;4.30;;;21.10;68.10;;;;;;4987116;28;88285;-82
2022/01/01 02:59:27;;;;;;;5.07;4.05;;;21.10;68.00;;;;;;4986060;28;89205;-86
2022/01/01 03:01:53;;;;;;;6.40;3.70;;;21.10;68.00;;;;;;4986862;28;87422;-86
2022/01/01 03:04:18;;;;;;;4.97;4.00;;;21.10;67.90;;;;;;4986957;28;87703;-85
2022/01/01 03:06:52;;;;;;;4.82;3.75;;;21.10;68.00;;;;;;4986482;28;88078;-89
2022/01/01 03:09:17;;;;;;;4.95;3.70;;;21.10;68.00;;;;;;4986029;28;88417;-84
2022/01/01 03:11:46;;;;;;;5.13;3.72;;;21.10;68.10;;;;;;4986645;28;88029;-85
2022/01/01 03:14:17;;;;;;;4.60;3.83;;;21.10;68.00;;;;;;4987717;28;87135;-86
2022/01/01 03:16:45;;;;;;;4.95;3.78;;;21.00;68.00;;;;;;4982957;28;87834;-86
2022/01/01 03:19:12;;;;;;;5.93;3.97;;;21.00;67.90;;;;;;4984907;28;88347;-85
2022/01/01 03:21:40;;;;;;;4.88;3.67;;;21.00;67.90;;;;;;4984080;28;87256;-85
2022/01/01 03:24:08;;;;;;;4.53;3.95;;;21.00;67.90;;;;;;4985530;28;87523;-83
2022/01/01 03:26:35;;;;;;;4.88;3.85;;;21.10;68.10;;;;;;4986544;28;87359;-85
2022/01/01 03:29:08;;;;;;;5.03;4.00;;;21.00;68.00;;;;;;4984426;28;87878;-85
2022/01/01 03:31:35;;;;;;;5.10;4.15;;;21.00;67.90;;;;;;4982672;28;89403;-85
2022/01/01 03:34:03;;;;;;;5.78;4.15;;;21.00;67.80;;;;;;4983347;28;88403;-86
2022/01/01 03:36:30;;;;;;;5.30;3.90;;;21.00;67.90;;;;;;4982377;28;87461;-84
2022/01/01 03:38:57;;;;;;;4.95;4.07;;;21.00;67.90;;;;;;4983213;28;88579;-84
2022/01/01 03:41:26;;;;;;;5.78;4.13;;;21.00;67.90;;;;;;4984893;28;87256;-84
2022/01/01 03:43:52;;;;;;;4.30;3.67;;;21.00;67.80;;;;;;4983057;28;87106;-84
2022/01/01 03:46:18;;;;;;;5.05;3.80;;;21.00;68.20;;;;;;4966832;28;89093;-85
2022/01/01 03:48:45;;;;;;;5.13;3.95;;;21.00;67.70;;;;;;4957183;28;89522;-88
2022/01/01 03:51:18;;;;;;;6.43;3.40;;;21.00;67.70;;;;;;4984461;28;87722;-87
2022/01/01 03:53:43;;;;;;;5.22;3.83;;;21.00;68.00;;;;;;4985335;28;87006;-82
2022/01/01 03:56:10;;;;;;;5.80;4.07;;;21.00;67.80;;;;;;4982462;28;89403;-87
2022/01/01 03:58:43;;;;;;;5.60;3.78;;;21.00;67.70;;;;;;4983257;28;89216;-83
2022/01/01 04:01:10;;;;;;;5.30;3.95;;;21.00;67.80;;;;;;4984984;28;87322;-82
2022/01/01 04:03:36;;;;;;;5.20;3.42;;;21.00;67.70;;;;;;4985763;28;86973;-85
2022/01/01 04:06:03;;;;;;;4.97;3.95;;;21.00;67.70;;;;;;4985881;28;88157;-89
2022/01/01 04:08:30;;;;;;;5.07;3.75;;;21.00;67.70;;;;;;4986730;28;88070;-86
2022/01/01 04:10:57;;;;;;;3.75;3.28;;;20.90;67.70;;;;;;4987485;28;88846;-83
2022/01/01 04:13:23;;;;;;;3.90;3.45;;;21.00;67.60;;;;;;4987401;28;87618;-88
2022/01/01 04:15:49;;;;;;;4.45;3.65;;;21.00;67.60;;;;;;4986732;28;87362;-86
2022/01/01 04:18:26;;;;;;;5.38;3.90;;;21.00;67.40;;;;;;4988858;28;87024;-87
2022/01/01 04:20:54;;;;;;;4.25;3.58;;;21.00;67.60;;;;;;4986686;28;87477;-85
2022/01/01 04:23:23;;;;;;;6.00;3.78;;;21.00;67.60;;;;;;4986857;28;88611;-84
2022/01/01 04:25:50;;;;;;;4.90;3.60;;;20.90;67.50;;;;;;4986893;28;87140;-84
2022/01/01 04:28:18;;;;;;;6.13;4.15;;;20.90;67.60;;;;;;4987635;28;87909;-84
2022/01/01 04:30:48;;;;;;;5.05;3.80;;;21.00;68.30;;;;;;4987088;28;89514;-85
2022/01/01 04:33:14;;;;;;;5.32;3.90;;;20.90;67.30;;;;;;4984447;28;86950;-89
2022/01/01 04:35:40;;;;;;;3.75;3.20;;;20.90;67.40;;;;;;4986621;28;87482;-83
2022/01/01 04:38:13;;;;;;;4.30;3.30;;;20.90;68.30;;;;;;4986912;28;86814;-82
2022/01/01 04:40:39;;;;;;;4.25;3.42;;;20.90;67.60;;;;;;4987216;28;87122;-84
2022/01/01 04:43:04;;;;;;;3.67;3.20;;;20.90;67.30;;;;;;4988421;28;87555;-85
2022/01/01 04:45:30;;;;;;;4.68;3.58;;;20.90;67.30;;;;;;4987718;28;88519;-84
2022/01/01 04:47:56;;;;;;;4.03;3.45;;;20.90;67.40;;;;;;4986364;28;89613;-84
2022/01/01 04:50:21;;;;;;;3.53;3.22;;;20.90;67.50;;;;;;4986138;28;89553;-83
2022/01/01 04:52:47;;;;;;;4.72;3.55;;;20.90;68.30;;;;;;4986530;28;88054;-82
2022/01/01 04:55:13;;;;;;;4.75;3.33;;;20.90;67.40;;;;;;4987311;28;86994;-86
2022/01/01 04:57:38;;;;;;;5.95;3.80;;;20.90;67.30;;;;;;4985764;28;90828;-84
2022/01/01 05:00:05;;;;;;;4.00;3.30;;;20.90;67.20;;;;;;4986194;28;88866;-84
2022/01/01 05:02:32;;;;;;;4.55;3.33;;;20.90;67.40;;;;;;4986419;28;87832;-84
2022/01/01 05:04:57;;;;;;;4.72;3.40;;;20.90;67.50;;;;;;4985932;28;87019;-81
2022/01/01 05:07:23;;;;;;;3.97;3.47;;;20.90;67.60;;;;;;4987282;28;87966;-83
2022/01/01 05:09:49;;;;;;;5.60;3.75;;;20.90;67.40;;;;;;4987767;28;86976;-85
2022/01/01 05:12:16;;;;;;;3.75;3.22;;;20.90;67.30;;;;;;4985891;28;88564;-84
2022/01/01 05:14:42;;;;;;;4.45;3.85;;;20.90;68.00;;;;;;4984728;28;87463;-87
2022/01/01 05:17:09;;;;;;;4.85;3.80;;;20.80;67.20;;;;;;4967636;28;88154;-84
2022/01/01 05:19:35;;;;;;;4.30;3.67;;;20.90;67.20;;;;;;4985169;28;89511;-85
2022/01/01 05:22:02;;;;;;;5.03;3.55;;;20.90;67.20;;;;;;4985892;28;87535;-85
2022/01/01 05:24:31;;;;;;;5.30;3.75;;;20.80;67.10;;;;;;4986102;28;87356;-86
2022/01/01 05:26:57;;;;;;;4.65;3.55;;;20.90;67.40;;;;;;4985188;28;87899;-88
2022/01/01 05:29:23;;;;;;;3.63;3.20;;;20.90;67.10;;;;;;4983492;28;87756;-86
2022/01/01 05:31:49;;;;;;;4.78;3.25;;;20.80;66.90;;;;;;4984964;28;86850;-88
2022/01/01 05:34:36;;;;;;;4.07;3.20;;;20.80;67.20;;;;;;4984981;28;87337;-84
2022/01/01 05:37:07;;;;;;;4.05;3.33;;;20.80;67.20;;;;;;4984214;28;90026;-83
2022/01/01 05:39:34;;;;;;;4.47;3.50;;;20.80;67.00;;;;;;4973183;28;87371;-83
2022/01/01 05:42:05;;;;;;;4.50;3.55;;;20.80;66.90;;;;;;4985261;28;87528;-82
2022/01/01 05:44:31;;;;;;;4.47;3.47;;;20.80;67.00;;;;;;4985287;28;88003;-84
2022/01/01 05:46:57;;;;;;;4.05;3.50;;;20.80;67.00;;;;;;4984907;28;86926;-83
2022/01/01 05:49:23;;;;;;;5.13;3.63;;;20.80;67.00;;;;;;4984561;28;87689;-81
2022/01/01 05:51:50;;;;;;;6.25;4.38;;;20.80;67.10;;;;;;4986102;28;86888;-83
2022/01/01 05:54:15;;;;;;;4.60;3.45;;;20.80;66.90;;;;;;4985343;28;87139;-82
2022/01/01 05:56:42;;;;;;;5.03;3.53;;;20.80;66.80;;;;;;4983488;28;87159;-84
2022/01/01 05:59:09;;;;;;;3.72;3.15;;;20.80;67.00;;;;;;4984864;28;88072;-84
2022/01/01 06:01:41;;;;;;;5.20;3.75;;;20.80;66.80;;;;;;4999753;28;87933;-85
2022/01/01 06:04:07;;;;;;;5.07;3.53;;;20.80;66.90;;;;;;4983674;28;87317;-87
2022/01/01 06:06:34;;;;;;;4.03;3.58;;;20.80;67.00;;;;;;4984184;28;88933;-86
2022/01/01 06:09:01;;;;;;;5.00;3.28;;;20.80;66.80;;;;;;4983501;28;89258;-84
2022/01/01 06:11:28;;;;;;;4.90;3.70;;;20.80;66.90;;;;;;4983017;28;87721;-86
2022/01/01 06:13:53;;;;;;;4.82;3.60;;;20.80;66.80;;;;;;4984749;28;87796;-87
2022/01/01 06:16:19;;;;;;;4.63;3.67;;;20.70;66.90;;;;;;5002855;22;88930;-87
2022/01/01 06:18:45;;;;;;;4.65;3.40;;;20.70;66.80;;;;;;4968920;28;90998;-89
2022/01/01 06:21:10;;;;;;;4.93;3.70;;;20.70;66.90;;;;;;4971785;28;87435;-87
2022/01/01 06:23:37;;;;;;;3.50;3.05;;;20.70;66.90;;;;;;4973104;28;87662;-89
2022/01/01 06:26:06;;;;;;;3.83;3.33;;;20.70;66.90;;;;;;4970098;28;88905;-87
2022/01/01 06:28:32;;;;;;;3.70;3.30;;;20.70;66.80;;;;;;4971869;28;89532;-83
2022/01/01 06:30:58;;;;;;;4.38;3.60;;;20.80;66.90;;;;;;4973267;28;87748;-88
2022/01/01 06:33:31;;;;;;;3.70;3.25;;;20.80;66.70;;;;;;4973266;28;87428;-89
2022/01/01 06:35:56;;;;;;;5.20;3.60;;;20.80;66.90;;;;;;4972739;28;88441;-88
2022/01/01 06:38:22;;;;;;;3.80;3.20;;;20.70;66.70;;;;;;4972946;28;87455;-89
2022/01/01 06:40:47;;;;;;;4.15;3.05;;;20.70;66.70;;;;;;4972811;28;87276;-85
2022/01/01 06:43:21;;;;;;;4.10;3.60;;;20.70;66.60;;;;;;4973927;28;86804;-84
2022/01/01 06:45:47;;;;;;;4.65;3.72;;;20.70;66.60;;;;;;4972368;28;88133;-88
2022/01/01 06:48:12;;;;;;;3.90;3.50;;;20.70;66.50;;;;;;4971709;28;87785;-87
2022/01/01 06:50:38;;;;;;;3.60;3.30;;;20.70;66.60;;;;;;4970227;28;88518;-84
2022/01/01 06:53:03;;;;;;;4.00;3.05;;;20.70;66.70;;;;;;4972996;28;87199;-86
2022/01/01 06:55:29;;;;;;;4.00;3.10;;;20.70;66.80;;;;;;4972409;28;87874;-90
2022/01/01 06:57:55;;;;;;;3.97;3.20;;;20.70;66.80;;;;;;4971826;28;87528;-86
2022/01/01 07:00:20;;;;;;;4.20;3.22;;;20.70;66.70;;;;;;4971904;28;87659;-83
2022/01/01 07:02:47;;;;;;;5.07;3.30;;;20.70;66.80;;;;;;4972548;28;87810;-86
2022/01/01 07:05:14;;;;;;;3.85;3.22;;;20.70;67.50;;;;;;4970925;28;90952;-83
2022/01/01 07:07:40;;;;;;;3.65;3.20;;;20.70;66.80;;;;;;4971164;28;86769;-83
2022/01/01 07:10:08;;;;;;;3.42;3.10;;;20.70;67.40;;;;;;4971182;28;87446;-89
2022/01/01 07:12:38;;;;;;;3.95;3.45;;;20.70;66.70;;;;;;4970231;28;87967;-85
2022/01/01 07:15:06;;;;;;;3.47;3.17;;;20.70;66.60;;;;;;4968796;28;91565;-86
2022/01/01 07:17:32;;;;;;;4.07;3.42;;;20.70;66.60;;;;;;4970923;28;90523;-86
2022/01/01 07:19:57;;;;;;;4.00;3.45;;;20.70;66.60;;;;;;4969503;28;87374;-86
2022/01/01 07:22:23;;;;;;;4.13;3.35;;;20.60;66.20;;;;;;4972000;28;87434;-88
2022/01/01 07:24:49;;;;;;;3.70;3.03;;;20.70;66.50;;;;;;4971447;28;88669;-89
2022/01/01 07:27:16;;;;;;;3.72;3.20;;;20.70;67.30;;;;;;4972059;28;87789;-86
2022/01/01 07:29:42;;;;;;;6.32;3.70;;;20.70;66.40;;;;;;4970716;28;87904;-83
2022/01/01 07:32:08;;;;;;;4.07;3.28;;;20.80;67.00;;;;;;4971953;28;86953;-83
2022/01/01 07:34:34;;;;;;;5.68;3.70;;;20.80;66.80;;;;;;4971959;28;87616;-84
2022/01/01 07:36:59;;;;;;;3.83;3.05;;;20.80;66.90;;;;;;4974254;28;87973;-83
2022/01/01 07:39:25;;;;;;;4.35;3.53;;;20.90;66.90;;;;;;4975663;28;88866;-87
2022/01/01 07:41:50;;;;;;;4.90;3.30;;;20.90;67.00;;;;;;4975728;28;87698;-86
2022/01/01 07:44:16;;;;;;;5.95;2.90;;;20.90;66.90;;;;;;4975078;28;87765;-83
2022/01/01 07:46:42;;;;;;;3.55;2.88;;;20.90;67.30;;;;;;4974668;28;90615;-87
2022/01/01 07:49:08;;;;;;;4.45;3.13;;;20.90;67.80;;;;;;4975250;28;87017;-87
2022/01/01 07:51:33;;;;;;;4.47;3.10;;;20.90;67.00;;;;;;4975544;28;87275;-90
2022/01/01 07:53:59;;;;;;;5.45;2.95;;;21.00;67.10;;;;;;4975852;28;88649;-87
2022/01/01 07:56:25;;;;;;;3.53;2.90;;;21.00;67.00;;;;;;4976358;28;87849;-84
2022/01/01 07:59:00;;;;;;;7.63;3.03;;;21.00;66.90;;;;;;4975756;28;87361;-87
2022/01/01 08:01:25;;;;;;;6.43;2.90;;;21.00;67.00;;;;;;4975515;28;87516;-88
2022/01/01 08:03:51;;;;;;;7.30;3.63;;;21.00;67.00;;;;;;4974820;28;88749;-89
2022/01/01 08:06:17;;;;;;;9.80;3.80;;;21.00;66.90;;;;;;4974929;28;89201;-87
2022/01/01 08:08:42;;;;;;;20.95;4.88;;;21.00;66.90;;;;;;4976090;28;87624;-86
2022/01/01 08:11:08;;;;;;;15.00;4.45;;;21.00;66.40;;;;;;4976079;28;87674;-83
2022/01/01 08:13:35;;;;;;;15.32;4.80;;;21.00;66.40;;;;;;4974556;28;90576;-87
2022/01/01 08:16:02;;;;;;;14.15;4.53;;;21.00;65.60;;;;;;4977650;28;90244;-85
2022/01/01 08:18:29;;;;;;;9.07;4.18;;;21.00;66.10;;;;;;4972909;28;87852;-84
2022/01/01 08:20:56;;;;;;;8.98;4.47;;;21.10;66.00;;;;;;4973736;28;87393;-85
2022/01/01 08:23:22;;;;;;;10.90;4.38;;;21.00;65.90;;;;;;4975072;28;87966;-88
2022/01/01 08:25:48;;;;;;;14.88;4.88;;;21.10;66.20;;;;;;4973873;28;87732;-86
2022/01/01 08:28:13;;;;;;;10.48;4.65;;;21.00;66.40;;;;;;4971055;28;89262;-86
2022/01/01 08:30:39;;;;;;;13.25;4.35;;;21.00;66.20;;;;;;4974706;28;86968;-88
2022/01/01 08:33:05;;;;;;;21.55;6.38;;;21.10;65.40;;;;;;4974123;28;86968;-86
2022/01/01 08:35:32;;;;;;;20.42;5.57;;;21.00;65.00;;;;;;4974096;28;88350;-85
2022/01/01 08:37:58;;;;;;;14.60;5.35;;;21.00;65.90;;;;;;4973730;28;87042;-84
2022/01/01 08:40:42;;;;;;;18.35;5.13;;;21.10;66.00;;;;;;4971449;28;88923;-86
2022/01/01 08:43:07;;;;;;;12.65;4.72;;;21.10;66.20;;;;;;4973949;28;87668;-86
2022/01/01 08:45:38;;;;;;;50.47;10.30;;;21.10;66.30;;;;;;4974635;28;87254;-88
2022/01/01 08:48:05;;;;;;;75.10;14.48;;;21.10;66.00;;;;;;4972431;28;87184;-88
2022/01/01 08:50:31;;;;;;;68.75;15.90;;;21.10;65.50;;;;;;4973011;28;87731;-89
2022/01/01 08:52:57;;;;;;;54.30;11.55;;;21.10;65.80;;;;;;4924822;28;89728;-85
2022/01/01 08:55:24;;;;;;;49.53;11.48;;;21.10;66.20;;;;;;4972765;28;88242;-83
2022/01/01 08:57:50;;;;;;;37.22;10.50;;;21.10;66.30;;;;;;4973359;28;86982;-85
2022/01/01 09:00:16;;;;;;;39.03;9.63;;;21.10;66.50;;;;;;4973076;28;87680;-84
2022/01/01 09:02:42;;;;;;;32.30;9.30;;;21.10;66.90;;;;;;4974609;28;88193;-86
2022/01/01 09:05:08;;;;;;;38.33;11.30;;;21.10;66.50;;;;;;4971606;28;87433;-86
2022/01/01 09:07:34;;;;;;;38.72;9.88;;;21.10;66.50;;;;;;4973377;28;87491;-84
2022/01/01 09:10:01;;;;;;;33.08;9.88;;;21.10;66.70;;;;;;4974185;28;87082;-86
2022/01/01 09:12:35;;;;;;;39.15;11.15;;;21.10;67.30;;;;;;4973622;28;88192;-88
2022/01/01 09:15:00;;;;;;;35.33;11.15;;;21.10;68.20;;;;;;4973593;28;87850;-84
2022/01/01 09:17:26;;;;;;;40.50;11.02;;;21.10;68.30;;;;;;4971678;28;88437;-85
2022/01/01 09:19:52;;;;;;;41.13;10.88;;;21.10;67.90;;;;;;4971710;28;87586;-87
2022/01/01 09:22:18;;;;;;;46.15;11.45;;;21.10;68.50;;;;;;4972323;28;87905;-84
2022/01/01 09:24:44;;;;;;;29.33;10.05;;;21.10;67.40;;;;;;4972586;28;88172;-84
2022/01/01 09:27:10;;;;;;;37.78;10.93;;;21.10;67.20;;;;;;4973176;28;87173;-88
2022/01/01 09:29:35;;;;;;;30.25;10.52;;;21.10;68.10;;;;;;4968333;28;87336;-83
2022/01/01 09:32:03;;;;;;;44.88;14.15;;;21.10;68.10;;;;;;4971725;28;87751;-86
2022/01/01 09:34:28;;;;;;;44.45;14.77;;;21.20;68.50;;;;;;4970699;28;88718;-85
2022/01/01 09:36:54;;;;;;;47.40;15.02;;;21.10;67.70;;;;;;4970530;28;87648;-84
2022/01/01 09:39:20;;;;;;;50.90;14.80;;;21.10;68.00;;;;;;4971272;28;87718;-84
2022/01/01 09:41:46;;;;;;;48.35;13.68;;;21.10;68.60;;;;;;4968977;28;88383;-87
2022/01/01 09:44:17;;;;;;;47.78;14.48;;;21.10;68.90;;;;;;4968800;28;89476;-84
2022/01/01 09:46:45;;;;;;;41.90;13.95;;;21.10;67.70;;;;;;4969817;28;87932;-83
2022/01/01 09:49:13;;;;;;;38.53;13.35;;;21.10;67.70;;;;;;4970535;28;87963;-88
2022/01/01 09:51:48;;;;;;;36.58;11.75;;;21.10;67.60;;;;;;4972334;28;87397;-85
2022/01/01 09:54:13;;;;;;;38.45;13.15;;;21.20;67.40;;;;;;4968928;28;90343;-87
2022/01/01 09:56:39;;;;;;;46.40;13.20;;;21.10;67.20;;;;;;4969861;28;88775;-86
2022/01/01 09:59:05;;;;;;;33.33;11.95;;;21.20;67.00;;;;;;4971495;28;86559;-86
2022/01/01 10:01:31;;;;;;;47.22;13.48;;;21.20;67.30;;;;;;4971619;28;87688;-85
2022/01/01 10:03:59;;;;;;;31.98;11.82;;;21.10;67.80;;;;;;4971036;28;87846;-84
2022/01/01 10:06:28;;;;;;;37.38;12.30;;;21.10;66.40;;;;;;4970878;28;88080;-85
2022/01/01 10:08:59;;;;;;;38.87;12.70;;;21.10;67.60;;;;;;4971871;28;87981;-83
2022/01/01 10:11:26;;;;;;;35.20;12.40;;;21.10;68.10;;;;;;4971259;28;87668;-85
2022/01/01 10:13:52;;;;;;;30.08;11.25;;;21.10;68.30;;;;;;4971092;28;88143;-86
2022/01/01 10:16:20;;;;;;;35.10;12.38;;;21.10;68.30;;;;;;4971416;28;87460;-86
2022/01/01 10:18:49;;;;;;;31.90;11.13;;;21.10;68.50;;;;;;4970646;28;87676;-90
2022/01/01 10:21:28;;;;;;;33.97;12.65;;;21.10;68.40;;;;;;4971614;28;87437;-84
2022/01/01 10:23:56;;;;;;;31.38;12.50;;;21.10;68.30;;;;;;4969971;28;90674;-91
2022/01/01 10:29:31;;;;;;;29.33;11.43;;;21.10;68.30;;;;;;4971585;28;86851;-88
2022/01/01 10:32:03;;;;;;;33.78;12.05;;;21.10;68.20;;;;;;4971801;28;88645;-90
2022/01/01 10:34:37;;;;;;;33.55;11.38;;;21.10;68.20;;;;;;4971948;28;89536;-88
2022/01/01 10:37:06;;;;;;;33.72;12.27;;;21.10;68.20;;;;;;4971819;28;87787;-84
2022/01/01 10:39:31;;;;;;;30.03;11.43;;;21.10;68.20;;;;;;4972500;28;87700;-88
2022/01/01 10:42:01;;;;;;;34.70;12.30;;;21.10;68.20;;;;;;4971267;28;87601;-84
2022/01/01 10:44:38;;;;;;;36.25;12.07;;;21.10;68.00;;;;;;4971046;28;87989;-84
2022/01/01 10:47:13;;;;;;;30.40;11.10;;;21.10;68.20;;;;;;4971268;28;88057;-86
2022/01/01 10:52:23;;;;;;;32.70;11.68;;;21.00;67.80;;;;;;4971637;28;87714;-82
2022/01/01 10:54:55;;;;;;;33.40;11.55;;;21.00;67.70;;;;;;4971731;28;87886;-87
2022/01/01 10:57:26;;;;;;;29.58;11.40;;;21.00;67.90;;;;;;4971324;28;88742;-87
2022/01/01 11:00:08;;;;;;;30.00;11.18;;;21.10;67.90;;;;;;4971635;28;87569;-84
2022/01/01 11:02:35;;;;;;;25.55;10.00;;;21.10;67.50;;;;;;4970980;28;88117;-83
2022/01/01 11:05:03;;;;;;;26.25;10.45;;;21.10;67.90;;;;;;4968656;28;90257;-83
2022/01/01 11:07:30;;;;;;;29.20;11.60;;;21.10;67.90;;;;;;4971357;28;87267;-83
2022/01/01 11:09:56;;;;;;;28.25;10.95;;;21.00;67.50;;;;;;4971603;28;87605;-86
2022/01/01 11:12:24;;;;;;;28.40;10.45;;;21.10;67.60;;;;;;4970638;28;87859;-84
2022/01/01 11:15:01;;;;;;;29.92;10.60;;;21.00;67.20;;;;;;4971847;28;87920;-85
2022/01/01 11:17:27;;;;;;;26.48;10.85;;;21.00;67.50;;;;;;4971073;28;87593;-84
2022/01/01 11:19:53;;;;;;;22.45;10.32;;;21.00;67.50;;;;;;4969150;28;87693;-85
2022/01/01 11:22:19;;;;;;;26.27;10.82;;;21.00;67.30;;;;;;4968976;28;91685;-86
2022/01/01 11:24:45;;;;;;;25.98;9.65;;;21.00;67.30;;;;;;4970500;28;88341;-84
2022/01/01 11:27:12;;;;;;;24.63;9.48;;;21.00;67.20;;;;;;4971862;28;88429;-85
2022/01/01 11:29:40;;;;;;;26.40;10.68;;;21.00;67.40;;;;;;4971517;28;87609;-91
2022/01/01 11:32:08;;;;;;;22.20;9.50;;;21.00;67.10;;;;;;4971270;28;87783;-91
2022/01/01 11:34:38;;;;;;;23.33;9.25;;;21.00;68.20;;;;;;4973373;28;87240;-84
2022/01/01 11:37:05;;;;;;;21.58;9.38;;;21.00;67.30;;;;;;4973003;28;87810;-83
2022/01/01 11:39:31;;;;;;;23.83;9.50;;;21.00;67.10;;;;;;4972544;28;86675;-85
2022/01/01 11:42:42;;;;;;;23.73;9.95;;;21.00;67.10;;;;;;4967621;28;88752;-86
2022/01/01 11:45:08;;;;;;;21.13;8.07;;;21.00;66.40;;;;;;4928071;28;87404;-83
2022/01/01 11:47:34;;;;;;;25.13;8.85;;;21.10;65.40;;;;;;4965232;28;89183;-84
2022/01/01 11:50:05;;;;;;;21.20;9.30;;;21.10;65.40;;;;;;4970216;28;87793;-85
2022/01/01 11:52:39;;;;;;;21.35;7.95;;;21.10;65.70;;;;;;4969614;28;87217;-87
2022/01/01 11:55:16;;;;;;;20.73;9.13;;;21.10;66.30;;;;;;4970291;28;87765;-84
2022/01/01 11:57:56;;;;;;;21.13;8.52;;;21.20;66.30;;;;;;4970476;28;87252;-86
2022/01/01 12:00:24;;;;;;;20.75;8.80;;;21.20;66.70;;;;;;4969771;28;88086;-86
2022/01/01 12:02:51;;;;;;;22.70;9.23;;;21.20;67.00;;;;;;4969967;28;88093;-88
2022/01/01 12:05:22;;;;;;;20.95;8.18;;;21.30;66.70;;;;;;4971182;28;87188;-88
2022/01/01 12:07:56;;;;;;;16.25;7.60;;;21.30;66.80;;;;;;4971643;28;87378;-83
2022/01/01 12:10:30;;;;;;;22.20;8.27;;;21.30;66.00;;;;;;4970608;28;87383;-86
2022/01/01 12:13:01;;;;;;;16.88;7.70;;;21.20;66.50;;;;;;4968416;28;91488;-84
2022/01/01 12:15:42;;;;;;;21.15;8.48;;;21.20;66.20;;;;;;4964349;28;88861;-83
2022/01/01 12:18:12;;;;;;;19.67;6.88;;;21.30;66.60;;;;;;4969532;28;86954;-84
2022/01/01 12:20:41;;;;;;;16.02;6.88;;;21.30;65.50;;;;;;4969489;28;88278;-84
2022/01/01 12:23:09;;;;;;;16.15;6.72;;;21.30;66.10;;;;;;4947283;28;88827;-86
2022/01/01 12:25:37;;;;;;;18.47;7.83;;;21.30;64.30;;;;;;4985607;28;87627;-83
2022/01/01 12:28:12;;;;;;;18.65;7.57;;;21.30;65.80;;;;;;4973816;28;87614;-84
2022/01/01 12:30:47;;;;;;;20.73;8.50;;;21.30;65.40;;;;;;4974360;28;86951;-87
2022/01/01 12:33:41;;;;;;;17.13;6.45;;;21.30;66.00;;;;;;4973865;28;87788;-86
2022/01/01 12:36:12;;;;;;;17.98;7.20;;;21.30;64.30;;;;;;4971619;28;87809;-84
2022/01/01 12:38:40;;;;;;;15.60;7.05;;;21.30;65.70;;;;;;4972362;28;89915;-85
2022/01/01 12:41:12;;;;;;;19.73;7.28;;;21.30;65.70;;;;;;4974647;28;87129;-83
2022/01/01 12:43:48;;;;;;;18.95;6.75;;;21.30;65.80;;;;;;4974269;28;88486;-87
2022/01/01 12:46:16;;;;;;;16.02;6.82;;;21.30;66.10;;;;;;4972660;28;88780;-86
2022/01/01 12:48:42;;;;;;;19.20;6.85;;;21.20;65.70;;;;;;4974224;28;87920;-85
2022/01/01 12:51:11;;;;;;;13.70;6.50;;;21.30;66.10;;;;;;4974348;28;87513;-83
2022/01/01 12:53:39;;;;;;;;;;;21.20;66.40;;;;;;4975333;28;87649;-85
2022/01/01 12:56:14;;;;;;;18.30;6.50;;;21.20;66.20;;;;;;4978264;28;87588;-84
2022/01/01 12:58:46;;;;;;;17.08;6.78;;;21.20;66.40;;;;;;4976938;28;87710;-87